Time;durP1;ratioP1;P1;durP2;ratioP2;P2;SDS_P1;SDS_P2;PMS_P1;PMS_P2;Temp;Humidity;BMP_temperature;BMP_pressure;BME280_temperature;BME280_humidity;BME280_pressure;Samples;Min_cycle;Max_cycle;Signal;HPM_P1;HPM_P2
2021/11/16 00:01:05;;;;;;;45.53;25.73;;;;;;;;;;5010708;28;20038;-65
2021/11/16 00:03:31;;;;;;;47.58;28.98;;;;;;;;;;5011613;28;20437;-65
2021/11/16 00:05:57;;;;;;;44.05;24.13;;;;;;;;;;5014169;28;20084;-66
2021/11/16 00:08:23;;;;;;;46.10;26.48;;;;;;;;;;5029050;28;20083;-66
2021/11/16 00:10:49;;;;;;;48.30;25.85;;;;;;;;;;5049205;22;20052;-66
2021/11/16 00:13:15;;;;;;;47.78;27.02;;;;;;;;;;5031785;28;20112;-66
2021/11/16 00:15:44;;;;;;;49.40;27.88;;;;;;;;;;5032052;28;20036;-64
2021/11/16 00:18:11;;;;;;;48.72;25.58;;;;;;;;;;5032356;28;20535;-66
2021/11/16 00:20:42;;;;;;;46.08;25.25;;;;;;;;;;5032301;28;20049;-66
2021/11/16 00:23:16;;;;;;;53.63;27.67;;;;;;;;;;5032060;28;20017;-66
2021/11/16 00:25:42;;;;;;;49.42;24.42;;;;;;;;;;5032174;28;20480;-66
2021/11/16 00:28:08;;;;;;;44.72;24.35;;;;;;;;;;5032243;28;20104;-67
2021/11/16 00:30:34;;;;;;;48.50;23.42;;;;;;;;;;5032014;28;20369;-67
2021/11/16 00:33:00;;;;;;;49.20;27.75;;;;;;;;;;5031950;28;20440;-67
2021/11/16 00:35:27;;;;;;;48.05;25.50;;;;;;;;;;5030601;28;20025;-66
2021/11/16 00:37:53;;;;;;;44.95;25.50;;;;;;;;;;5031604;28;21846;-66
2021/11/16 00:40:20;;;;;;;49.58;27.13;;;;;;;;;;5031794;28;20029;-66
2021/11/16 00:42:47;;;;;;;45.33;23.92;;;;;;;;;;5031388;28;20025;-66
2021/11/16 00:45:14;;;;;;;47.47;25.67;;;;;;;;;;5032069;28;20108;-66
2021/11/16 00:47:41;;;;;;;46.65;24.98;;;;;;;;;;5030160;28;20268;-66
2021/11/16 00:50:07;;;;;;;48.03;25.92;;;;;;;;;;5031470;28;20068;-66
2021/11/16 00:52:33;;;;;;;41.88;24.13;;;;;;;;;;5031504;28;20036;-66
2021/11/16 00:55:00;;;;;;;50.22;25.63;;;;;;;;;;5030453;28;20074;-66
2021/11/16 00:57:26;;;;;;;50.80;25.88;;;;;;;;;;5031740;28;20034;-66
2021/11/16 00:59:52;;;;;;;48.08;24.95;;;;;;;;;;5031114;28;20021;-66
2021/11/16 01:02:18;;;;;;;52.40;28.08;;;;;;;;;;5031252;28;20041;-66
2021/11/16 01:04:49;;;;;;;46.33;26.00;;;;;;;;;;5031314;28;20026;-66
2021/11/16 01:07:16;;;;;;;45.55;23.45;;;;;;;;;;5030222;28;20444;-66
2021/11/16 01:09:42;;;;;;;43.97;24.27;;;;;;;;;;5031327;28;20062;-66
2021/11/16 01:12:08;;;;;;;51.70;26.23;;;;;;;;;;5031027;28;20065;-66
2021/11/16 01:14:34;;;;;;;47.95;24.92;;;;;;;;;;5031236;28;20021;-67
2021/11/16 01:17:01;;;;;;;50.80;27.27;;;;;;;;;;5029976;28;20052;-67
2021/11/16 01:19:27;;;;;;;49.10;27.25;;;;;;;;;;5030072;28;20076;-66
2021/11/16 01:21:53;;;;;;;50.83;26.48;;;;;;;;;;5029770;28;20053;-66
2021/11/16 01:24:19;;;;;;;49.10;27.08;;;;;;;;;;5030922;28;20030;-66
2021/11/16 01:26:47;;;;;;;49.35;25.00;;;;;;;;;;5031158;28;20449;-66
2021/11/16 01:29:13;;;;;;;48.65;24.85;;;;;;;;;;5031017;28;20080;-66
2021/11/16 01:31:39;;;;;;;51.10;26.88;;;;;;;;;;5029612;28;20087;-66
2021/11/16 01:34:07;;;;;;;53.80;26.48;;;;;;;;;;5031108;28;20370;-66
2021/11/16 01:36:33;;;;;;;50.28;26.55;;;;;;;;;;5030836;28;20033;-66
2021/11/16 01:39:00;;;;;;;48.08;25.70;;;;;;;;;;5029493;28;20063;-66
2021/11/16 01:41:30;;;;;;;52.70;27.08;;;;;;;;;;5030586;28;20449;-66
2021/11/16 01:43:56;;;;;;;46.40;24.30;;;;;;;;;;5011751;28;20048;-66
2021/11/16 01:46:23;;;;;;;48.15;25.50;;;;;;;;;;5009815;28;20393;-66
2021/11/16 01:48:51;;;;;;;45.28;25.38;;;;;;;;;;5019028;28;20040;-65
2021/11/16 01:51:20;;;;;;;50.08;25.50;;;;;;;;;;5029413;28;20033;-65
2021/11/16 01:53:46;;;;;;;45.58;24.90;;;;;;;;;;5030579;28;20021;-66
2021/11/16 01:56:12;;;;;;;52.38;26.80;;;;;;;;;;5029222;28;20034;-66
2021/11/16 01:58:38;;;;;;;50.10;25.50;;;;;;;;;;5030618;28;20300;-66
2021/11/16 02:01:04;;;;;;;50.20;27.05;;;;;;;;;;5029003;28;20346;-66
2021/11/16 02:03:31;;;;;;;49.55;25.00;;;;;;;;;;5029088;28;20022;-66
2021/11/16 02:05:58;;;;;;;53.35;24.92;;;;;;;;;;5030244;28;20099;-66
2021/11/16 02:08:25;;;;;;;49.30;23.90;;;;;;;;;;5030589;28;20026;-66
2021/11/16 02:10:52;;;;;;;48.65;25.27;;;;;;;;;;5030250;28;20100;-67
2021/11/16 02:13:20;;;;;;;51.90;26.33;;;;;;;;;;5028467;28;20067;-66
2021/11/16 02:15:46;;;;;;;46.65;24.25;;;;;;;;;;5029144;28;20055;-66
2021/11/16 02:18:13;;;;;;;44.20;24.63;;;;;;;;;;5029270;28;20029;-66
2021/11/16 02:20:40;;;;;;;47.13;24.58;;;;;;;;;;5030347;28;20025;-66
2021/11/16 02:23:07;;;;;;;45.83;25.48;;;;;;;;;;5030191;28;20493;-66
2021/11/16 02:25:33;;;;;;;45.13;22.67;;;;;;;;;;5028864;28;20049;-66
2021/11/16 02:27:59;;;;;;;45.60;22.88;;;;;;;;;;5032020;28;20108;-66
2021/11/16 02:30:25;;;;;;;47.20;23.73;;;;;;;;;;5034187;28;20032;-67
2021/11/16 02:32:52;;;;;;;50.22;24.90;;;;;;;;;;5032760;28;20029;-65
2021/11/16 02:35:19;;;;;;;50.00;24.58;;;;;;;;;;5032763;28;20022;-66
2021/11/16 02:37:46;;;;;;;50.92;24.65;;;;;;;;;;5032920;28;20041;-65
2021/11/16 02:40:12;;;;;;;51.65;25.10;;;;;;;;;;5034223;28;20500;-66
2021/11/16 02:42:38;;;;;;;49.95;24.63;;;;;;;;;;5034102;28;20202;-66
2021/11/16 02:45:05;;;;;;;46.08;23.50;;;;;;;;;;5034381;28;20036;-66
2021/11/16 02:47:31;;;;;;;46.72;25.80;;;;;;;;;;5032809;28;20365;-66
2021/11/16 02:49:58;;;;;;;50.28;24.52;;;;;;;;;;5033780;28;20037;-66
2021/11/16 02:52:24;;;;;;;44.55;25.02;;;;;;;;;;5033937;28;20547;-65
2021/11/16 02:54:54;;;;;;;50.75;25.40;;;;;;;;;;5032771;28;20049;-66
2021/11/16 02:57:20;;;;;;;52.08;24.98;;;;;;;;;;5032692;28;20402;-66
2021/11/16 02:59:46;;;;;;;50.90;26.83;;;;;;;;;;5033723;28;20030;-66
2021/11/16 03:02:13;;;;;;;50.33;25.38;;;;;;;;;;5033420;28;20037;-66
2021/11/16 03:04:45;;;;;;;48.70;25.30;;;;;;;;;;5032338;28;20064;-66
2021/11/16 03:07:12;;;;;;;44.90;24.35;;;;;;;;;;5033927;28;20017;-66
2021/11/16 03:09:39;;;;;;;56.70;28.15;;;;;;;;;;5032233;28;20086;-66
2021/11/16 03:12:05;;;;;;;43.53;23.23;;;;;;;;;;5033646;28;20098;-67
2021/11/16 03:14:31;;;;;;;47.83;25.10;;;;;;;;;;5033560;28;20389;-66
2021/11/16 03:16:58;;;;;;;52.90;25.73;;;;;;;;;;5032304;28;20496;-66
2021/11/16 03:19:25;;;;;;;46.03;23.15;;;;;;;;;;5033441;28;20481;-66
2021/11/16 03:21:57;;;;;;;44.67;22.35;;;;;;;;;;5032106;28;20162;-65
2021/11/16 03:24:24;;;;;;;50.28;24.50;;;;;;;;;;5032366;28;20029;-65
2021/11/16 03:26:51;;;;;;;43.63;22.08;;;;;;;;;;5033173;28;20042;-66
2021/11/16 03:29:22;;;;;;;48.80;23.90;;;;;;;;;;5031702;28;20033;-65
2021/11/16 03:31:50;;;;;;;51.20;25.20;;;;;;;;;;5031698;28;20138;-66
2021/11/16 03:34:16;;;;;;;50.25;23.98;;;;;;;;;;5032010;28;20077;-66
2021/11/16 03:36:43;;;;;;;47.92;23.85;;;;;;;;;;5031751;28;20030;-66
2021/11/16 03:39:09;;;;;;;55.47;26.85;;;;;;;;;;5032881;28;20041;-66
2021/11/16 03:41:36;;;;;;;57.30;26.52;;;;;;;;;;5031827;28;20483;-65
2021/11/16 03:44:02;;;;;;;49.75;24.08;;;;;;;;;;5032931;28;20109;-65
2021/11/16 03:46:28;;;;;;;50.20;25.38;;;;;;;;;;5031803;28;20053;-66
2021/11/16 03:48:54;;;;;;;52.38;24.80;;;;;;;;;;5031084;28;20068;-65
2021/11/16 03:51:20;;;;;;;50.35;23.95;;;;;;;;;;5032942;28;20026;-68
2021/11/16 03:53:47;;;;;;;50.70;23.52;;;;;;;;;;5032777;28;20040;-64
2021/11/16 03:56:13;;;;;;;45.55;22.52;;;;;;;;;;5032829;28;20022;-64
2021/11/16 03:58:42;;;;;;;47.15;25.17;;;;;;;;;;5031649;28;20108;-64
2021/11/16 04:01:09;;;;;;;47.38;21.38;;;;;;;;;;5032331;28;20086;-65
2021/11/16 04:03:37;;;;;;;44.30;21.98;;;;;;;;;;5032893;28;20537;-65
2021/11/16 04:06:03;;;;;;;49.40;22.85;;;;;;;;;;5031744;28;20033;-65
2021/11/16 04:08:30;;;;;;;50.58;23.83;;;;;;;;;;5031589;28;20608;-65
2021/11/16 04:10:56;;;;;;;49.10;23.05;;;;;;;;;;5032333;28;20416;-65
2021/11/16 04:13:22;;;;;;;54.83;26.65;;;;;;;;;;5032668;28;20071;-64
2021/11/16 04:15:50;;;;;;;54.78;26.80;;;;;;;;;;5032960;28;20416;-65
2021/11/16 04:18:17;;;;;;;48.80;23.77;;;;;;;;;;5032825;28;20029;-66
2021/11/16 04:20:44;;;;;;;59.00;26.25;;;;;;;;;;5031163;28;20308;-66
2021/11/16 04:23:11;;;;;;;49.33;23.70;;;;;;;;;;5031844;28;20468;-66
2021/11/16 04:25:38;;;;;;;48.13;25.35;;;;;;;;;;5031106;28;20037;-66
2021/11/16 04:28:05;;;;;;;51.28;24.27;;;;;;;;;;5031033;28;20034;-66
2021/11/16 04:30:31;;;;;;;50.60;22.45;;;;;;;;;;5032393;28;20442;-66
2021/11/16 04:32:58;;;;;;;48.33;23.25;;;;;;;;;;5031934;28;20538;-66
2021/11/16 04:35:24;;;;;;;56.03;26.05;;;;;;;;;;5031745;28;20033;-66
2021/11/16 04:37:52;;;;;;;54.47;26.10;;;;;;;;;;5030638;28;20032;-67
2021/11/16 04:40:20;;;;;;;50.10;23.35;;;;;;;;;;5031812;28;20022;-67
2021/11/16 04:42:46;;;;;;;46.58;23.10;;;;;;;;;;5030711;28;20371;-65
2021/11/16 04:45:19;;;;;;;53.15;24.85;;;;;;;;;;5030784;28;20107;-66
2021/11/16 04:47:51;;;;;;;51.30;24.90;;;;;;;;;;5031544;28;20040;-66
2021/11/16 04:50:53;;;;;;;48.00;23.80;;;;;;;;;;5028915;28;20060;-65
2021/11/16 05:03:41;;;;;;;57.05;25.00;;;;;;;;;;5031379;28;20083;-66
2021/11/16 05:06:07;;;;;;;52.10;24.27;;;;;;;;;;5031490;28;20072;-66
2021/11/16 05:08:33;;;;;;;57.75;25.92;;;;;;;;;;5031622;28;20029;-66
2021/11/16 05:10:59;;;;;;;54.53;28.00;;;;;;;;;;5030856;28;20083;-66
2021/11/16 05:13:25;;;;;;;50.03;25.02;;;;;;;;;;5031170;28;20029;-67
2021/11/16 05:15:51;;;;;;;57.38;27.38;;;;;;;;;;5031539;28;20100;-66
2021/11/16 05:18:17;;;;;;;58.50;27.67;;;;;;;;;;5031497;28;20022;-66
2021/11/16 05:20:43;;;;;;;61.47;27.52;;;;;;;;;;5029818;28;20041;-66
2021/11/16 05:23:10;;;;;;;58.13;28.92;;;;;;;;;;5030747;28;20142;-68
2021/11/16 05:25:36;;;;;;;59.90;28.20;;;;;;;;;;5029930;28;20040;-67
2021/11/16 05:28:05;;;;;;;59.75;27.05;;;;;;;;;;5031031;28;20068;-67
2021/11/16 05:30:32;;;;;;;60.40;30.05;;;;;;;;;;5030992;28;20083;-67
2021/11/16 05:32:58;;;;;;;60.47;30.58;;;;;;;;;;5030771;28;20024;-67
2021/11/16 05:35:24;;;;;;;57.83;27.02;;;;;;;;;;5031115;28;20014;-66
2021/11/16 05:37:50;;;;;;;60.10;28.00;;;;;;;;;;5029634;28;20465;-66
2021/11/16 05:40:16;;;;;;;67.97;30.65;;;;;;;;;;5029588;28;20428;-66
2021/11/16 05:42:42;;;;;;;54.67;25.77;;;;;;;;;;5029378;28;20022;-66
2021/11/16 05:45:08;;;;;;;61.22;30.02;;;;;;;;;;5030755;28;20432;-66
2021/11/16 05:47:35;;;;;;;61.90;29.48;;;;;;;;;;5029637;28;20040;-66
2021/11/16 05:50:01;;;;;;;62.88;26.90;;;;;;;;;;5030473;28;20021;-66
2021/11/16 05:52:27;;;;;;;63.55;28.73;;;;;;;;;;5030652;28;20108;-66
2021/11/16 05:54:53;;;;;;;63.95;29.60;;;;;;;;;;5030842;28;20033;-66
2021/11/16 05:57:19;;;;;;;61.28;30.45;;;;;;;;;;5030272;28;20367;-66
2021/11/16 05:59:45;;;;;;;68.38;30.35;;;;;;;;;;5030918;28;20412;-67
2021/11/16 06:02:12;;;;;;;62.30;29.65;;;;;;;;;;5029063;28;20444;-67
2021/11/16 06:04:39;;;;;;;62.92;28.83;;;;;;;;;;5030510;28;20114;-66
2021/11/16 06:07:06;;;;;;;59.47;28.43;;;;;;;;;;5029508;28;20055;-68
2021/11/16 06:09:47;;;;;;;;;;;;;;;;;;;;;
2021/11/16 06:12:07;;;;;;;65.25;29.52;;;;;;;;;;5053617;22;20148;-66
2021/11/16 06:14:33;;;;;;;58.03;30.38;;;;;;;;;;5030460;28;20061;-66
2021/11/16 06:16:59;;;;;;;60.80;27.67;;;;;;;;;;5030448;28;20049;-64
2021/11/16 06:19:26;;;;;;;59.25;30.35;;;;;;;;;;5043080;28;20160;-66
2021/11/16 06:21:52;;;;;;;61.72;27.83;;;;;;;;;;5050074;28;20021;-65
2021/11/16 06:24:18;;;;;;;65.80;30.00;;;;;;;;;;5052358;28;20029;-66
2021/11/16 06:26:45;;;;;;;74.57;30.05;;;;;;;;;;5050101;28;20415;-66
2021/11/16 06:29:11;;;;;;;63.42;30.30;;;;;;;;;;5050352;28;20017;-66
2021/11/16 06:31:37;;;;;;;64.13;30.77;;;;;;;;;;5035246;28;20527;-66
2021/11/16 06:34:03;;;;;;;67.78;29.55;;;;;;;;;;5029504;28;20487;-63
2021/11/16 06:36:35;;;;;;;70.20;31.13;;;;;;;;;;5029537;28;20444;-65
2021/11/16 06:39:04;;;;;;;63.33;29.38;;;;;;;;;;5029673;28;20477;-65
2021/11/16 06:41:30;;;;;;;72.45;32.38;;;;;;;;;;5029460;28;20076;-65
2021/11/16 06:43:56;;;;;;;71.55;30.48;;;;;;;;;;5043737;28;20392;-64
2021/11/16 06:46:22;;;;;;;66.35;31.17;;;;;;;;;;5051163;28;20102;-64
2021/11/16 06:48:48;;;;;;;65.75;31.00;;;;;;;;;;5048267;28;20032;-64
2021/11/16 06:51:14;;;;;;;66.10;31.17;;;;;;;;;;5036845;28;20052;-66
2021/11/16 06:53:40;;;;;;;75.38;38.80;;;;;;;;;;5029304;28;20021;-66
2021/11/16 06:56:06;;;;;;;63.67;30.70;;;;;;;;;;5041664;28;20029;-64
2021/11/16 06:58:34;;;;;;;68.97;32.63;;;;;;;;;;5049945;28;20026;-65
2021/11/16 07:01:01;;;;;;;73.20;32.83;;;;;;;;;;5049070;28;20025;-64
2021/11/16 07:03:27;;;;;;;58.58;32.22;;;;;;;;;;5049177;28;20021;-65
2021/11/16 07:05:56;;;;;;;66.55;31.45;;;;;;;;;;5049292;28;20091;-64
2021/11/16 07:08:35;;;;;;;67.93;32.10;;;;;;;;;;5036291;28;20025;-65
2021/11/16 07:11:13;;;;;;;57.58;27.88;;;;;;;;;;5047472;28;20198;-65
2021/11/16 07:13:57;;;;;;;58.30;28.73;;;;;;;;;;5050058;28;20135;-64
2021/11/16 07:16:25;;;;;;;54.90;28.45;;;;;;;;;;5052852;28;20286;-65
2021/11/16 07:18:51;;;;;;;58.78;27.23;;;;;;;;;;5053524;28;20392;-65
2021/11/16 07:21:21;;;;;;;61.45;28.98;;;;;;;;;;5054308;28;20078;-64
2021/11/16 07:24:00;;;;;;;56.83;26.75;;;;;;;;;;5046857;28;20025;-65
2021/11/16 07:26:27;;;;;;;57.80;28.83;;;;;;;;;;5034493;28;20112;-66
2021/11/16 07:28:53;;;;;;;60.67;28.80;;;;;;;;;;5033957;28;20473;-65
2021/11/16 07:31:21;;;;;;;56.42;27.35;;;;;;;;;;5031996;28;20025;-63
2021/11/16 07:33:47;;;;;;;;;;;;;;;;;;5034290;28;20021;-64
2021/11/16 07:36:16;;;;;;;60.10;27.58;;;;;;;;;;5033920;28;20380;-64
2021/11/16 07:38:42;;;;;;;61.78;29.23;;;;;;;;;;5050124;28;20017;-62
2021/11/16 07:41:08;;;;;;;61.28;28.88;;;;;;;;;;5054131;28;20025;-65
2021/11/16 07:43:34;;;;;;;74.70;32.17;;;;;;;;;;5053873;28;20561;-65
2021/11/16 07:46:01;;;;;;;60.72;28.40;;;;;;;;;;5052721;28;20029;-65
2021/11/16 07:48:30;;;;;;;55.17;27.05;;;;;;;;;;5053782;28;20282;-65
2021/11/16 07:50:58;;;;;;;53.83;27.20;;;;;;;;;;5048714;28;20029;-64
2021/11/16 07:53:27;;;;;;;57.20;27.30;;;;;;;;;;5032875;28;20103;-66
2021/11/16 07:55:53;;;;;;;58.90;27.30;;;;;;;;;;5034345;28;20018;-66
2021/11/16 07:58:19;;;;;;;60.63;27.92;;;;;;;;;;5032947;28;20072;-65
2021/11/16 08:00:47;;;;;;;57.67;27.13;;;;;;;;;;5033511;28;20022;-66
2021/11/16 08:03:20;;;;;;;60.45;28.35;;;;;;;;;;5032045;28;20485;-64
2021/11/16 08:06:08;;;;;;;56.80;27.10;;;;;;;;;;5046064;28;20021;-64
2021/11/16 08:13:54;;;;;;;50.95;24.92;;;;;;;;;;5034109;28;20481;-69
2021/11/16 08:16:20;;;;;;;53.35;27.55;;;;;;;;;;5033065;28;20025;-69
2021/11/16 08:18:53;;;;;;;62.60;28.77;;;;;;;;;;5033226;28;20025;-69
2021/11/16 08:21:19;;;;;;;62.63;28.83;;;;;;;;;;5034592;28;20067;-69
2021/11/16 08:23:53;;;;;;;59.30;28.83;;;;;;;;;;5033875;28;20077;-69
2021/11/16 08:26:19;;;;;;;63.72;29.25;;;;;;;;;;5032825;28;20474;-70
2021/11/16 08:28:49;;;;;;;59.72;25.92;;;;;;;;;;5033961;28;20477;-69
2021/11/16 08:31:15;;;;;;;53.33;25.73;;;;;;;;;;5032805;28;20117;-69
2021/11/16 08:33:42;;;;;;;54.25;25.05;;;;;;;;;;5044529;28;20113;-69
2021/11/16 08:36:08;;;;;;;55.67;26.02;;;;;;;;;;5046842;28;20025;-69
2021/11/16 08:38:35;;;;;;;54.17;25.67;;;;;;;;;;5051499;28;20146;-66
2021/11/16 08:41:01;;;;;;;60.17;25.92;;;;;;;;;;5053109;28;20043;-65
2021/11/16 08:43:36;;;;;;;52.03;25.60;;;;;;;;;;5053035;28;20025;-64
2021/11/16 08:46:04;;;;;;;56.53;24.13;;;;;;;;;;5052220;28;20021;-65
2021/11/16 08:48:30;;;;;;;54.42;23.50;;;;;;;;;;5050431;28;20028;-65
2021/11/16 08:50:59;;;;;;;54.75;24.70;;;;;;;;;;5034759;28;20067;-66
2021/11/16 08:53:28;;;;;;;48.95;23.70;;;;;;;;;;5052984;28;20033;-64
2021/11/16 08:55:54;;;;;;;52.90;24.85;;;;;;;;;;5053406;28;20017;-66
2021/11/16 08:58:20;;;;;;;47.97;22.17;;;;;;;;;;5053072;28;20021;-65
2021/11/16 09:00:58;;;;;;;57.00;24.73;;;;;;;;;;5052860;28;20096;-65
2021/11/16 09:03:26;;;;;;;49.72;23.33;;;;;;;;;;5046282;28;20033;-65
2021/11/16 09:05:52;;;;;;;;;;;;;;;;;;5033489;28;20132;-65
2021/11/16 09:08:22;;;;;;;51.55;21.38;;;;;;;;;;5031555;28;20285;-65
2021/11/16 09:10:49;;;;;;;50.53;23.33;;;;;;;;;;5032709;28;20029;-64
2021/11/16 09:13:16;;;;;;;46.20;20.92;;;;;;;;;;5031399;28;20030;-65
2021/11/16 09:15:42;;;;;;;48.58;22.30;;;;;;;;;;5031089;28;20339;-65
2021/11/16 09:18:20;;;;;;;44.20;21.58;;;;;;;;;;5042024;28;20379;-65
2021/11/16 09:20:57;;;;;;;47.17;20.33;;;;;;;;;;5052293;28;20029;-64
2021/11/16 09:23:24;;;;;;;42.72;19.42;;;;;;;;;;5051237;28;20378;-65
2021/11/16 09:25:53;;;;;;;44.42;20.35;;;;;;;;;;5053208;28;20081;-65
2021/11/16 09:28:36;;;;;;;46.03;21.33;;;;;;;;;;5052520;28;20028;-65
2021/11/16 09:31:22;;;;;;;43.95;19.92;;;;;;;;;;5048028;28;20108;-66
2021/11/16 09:33:49;;;;;;;41.55;18.05;;;;;;;;;;5029957;28;20079;-65
2021/11/16 09:36:26;;;;;;;42.17;20.85;;;;;;;;;;5031551;28;20056;-66
2021/11/16 09:38:54;;;;;;;43.33;19.63;;;;;;;;;;5031224;28;20021;-65
2021/11/16 09:41:21;;;;;;;;;;;;;;;;;;5032783;28;20138;-67
2021/11/16 09:43:54;;;;;;;39.72;18.13;;;;;;;;;;5030987;28;19948;-67
2021/11/16 09:46:20;;;;;;;38.67;19.05;;;;;;;;;;5046671;28;20029;-67
2021/11/16 09:48:47;;;;;;;46.08;18.88;;;;;;;;;;5051948;28;20037;-67
2021/11/16 09:51:19;;;;;;;42.35;19.35;;;;;;;;;;5050225;28;20497;-66
2021/11/16 09:53:45;;;;;;;39.38;18.98;;;;;;;;;;5052811;28;20500;-67
2021/11/16 09:56:18;;;;;;;40.75;19.65;;;;;;;;;;5050563;28;20506;-67
2021/11/16 09:58:45;;;;;;;44.42;20.42;;;;;;;;;;5049990;28;20104;-67
2021/11/16 10:01:19;;;;;;;39.10;18.25;;;;;;;;;;5031602;28;20036;-67
2021/11/16 10:03:46;;;;;;;42.47;20.05;;;;;;;;;;5030392;28;20482;-67
2021/11/16 10:06:14;;;;;;;44.72;22.48;;;;;;;;;;5030604;28;20489;-68
2021/11/16 10:08:41;;;;;;;47.55;22.45;;;;;;;;;;5031625;28;20113;-67
2021/11/16 10:11:07;;;;;;;46.30;23.42;;;;;;;;;;5030515;28;20125;-67
2021/11/16 10:13:33;;;;;;;48.55;24.92;;;;;;;;;;5031919;28;20049;-67
2021/11/16 10:16:02;;;;;;;51.15;22.80;;;;;;;;;;5030221;28;20379;-68
2021/11/16 10:18:31;;;;;;;50.95;23.10;;;;;;;;;;5030081;28;20022;-68
2021/11/16 10:20:57;;;;;;;50.15;23.90;;;;;;;;;;5030057;28;20036;-68
2021/11/16 10:23:26;;;;;;;41.13;20.80;;;;;;;;;;5031651;28;20449;-67
2021/11/16 10:25:53;;;;;;;45.85;22.55;;;;;;;;;;5032147;28;20370;-67
2021/11/16 10:28:20;;;;;;;44.92;22.80;;;;;;;;;;5047458;28;20032;-67
2021/11/16 10:30:47;;;;;;;49.72;23.30;;;;;;;;;;5050359;28;20104;-67
2021/11/16 10:33:17;;;;;;;48.63;23.63;;;;;;;;;;5051322;28;20037;-67
2021/11/16 10:35:49;;;;;;;53.15;24.33;;;;;;;;;;5047137;28;20018;-67
2021/11/16 10:38:18;;;;;;;51.33;24.10;;;;;;;;;;5030379;28;20162;-67
2021/11/16 10:40:44;;;;;;;44.97;22.05;;;;;;;;;;5035130;28;20488;-67
2021/11/16 10:43:10;;;;;;;42.83;20.20;;;;;;;;;;5049143;28;20131;-67
2021/11/16 10:45:43;;;;;;;45.65;20.33;;;;;;;;;;5051629;28;20033;-67
2021/11/16 10:48:11;;;;;;;42.38;19.92;;;;;;;;;;5052791;28;20055;-67
2021/11/16 10:50:39;;;;;;;42.38;20.77;;;;;;;;;;5052402;28;20032;-66
2021/11/16 10:53:07;;;;;;;43.63;20.25;;;;;;;;;;5033738;28;20053;-67
2021/11/16 10:55:34;;;;;;;41.80;20.30;;;;;;;;;;5035492;28;20022;-67
2021/11/16 10:58:06;;;;;;;39.92;23.10;;;;;;;;;;5033911;28;20056;-67
2021/11/16 11:00:34;;;;;;;39.55;18.65;;;;;;;;;;5034284;28;20089;-67
2021/11/16 11:03:18;;;;;;;45.03;19.52;;;;;;;;;;5037100;28;20029;-67
2021/11/16 11:05:46;;;;;;;37.15;17.88;;;;;;;;;;5053365;28;20036;-66
2021/11/16 11:08:12;;;;;;;38.07;17.87;;;;;;;;;;5053655;28;20663;-66
2021/11/16 11:10:46;;;;;;;39.22;19.20;;;;;;;;;;5053046;28;20779;-67
2021/11/16 11:13:31;;;;;;;38.55;17.73;;;;;;;;;;5054871;28;20090;-66
2021/11/16 11:15:57;;;;;;;39.50;17.80;;;;;;;;;;5053508;28;20021;-66
2021/11/16 11:18:31;;;;;;;39.38;18.85;;;;;;;;;;5037878;28;20026;-67
2021/11/16 11:21:01;;;;;;;36.60;17.67;;;;;;;;;;5034715;28;20060;-67
2021/11/16 11:23:46;;;;;;;40.28;19.20;;;;;;;;;;5033174;28;20200;-66
2021/11/16 11:26:21;;;;;;;35.25;18.30;;;;;;;;;;5034468;28;20073;-68
2021/11/16 11:29:04;;;;;;;38.00;18.45;;;;;;;;;;5034768;28;20453;-67
2021/11/16 11:31:31;;;;;;;37.30;19.13;;;;;;;;;;5034807;28;20079;-66
2021/11/16 11:33:57;;;;;;;38.90;21.05;;;;;;;;;;5033067;28;20030;-67
2021/11/16 11:36:28;;;;;;;40.70;20.30;;;;;;;;;;5034224;28;20018;-65
2021/11/16 11:38:55;;;;;;;37.65;20.05;;;;;;;;;;5034938;28;20389;-67
2021/11/16 11:41:22;;;;;;;45.35;20.00;;;;;;;;;;5034162;28;20025;-66
2021/11/16 11:44:08;;;;;;;44.70;20.88;;;;;;;;;;5034125;28;20112;-67
2021/11/16 11:46:43;;;;;;;36.97;19.15;;;;;;;;;;5052874;28;20033;-67
2021/11/16 11:49:10;;;;;;;38.85;19.20;;;;;;;;;;5054538;28;20139;-67
2021/11/16 11:51:36;;;;;;;41.10;21.20;;;;;;;;;;5054211;28;20381;-66
2021/11/16 11:54:02;;;;;;;44.53;20.77;;;;;;;;;;5052769;28;20472;-67
2021/11/16 11:56:28;;;;;;;42.17;20.83;;;;;;;;;;5053958;28;20021;-67
2021/11/16 11:58:56;;;;;;;46.60;22.23;;;;;;;;;;5048533;28;20473;-67
2021/11/16 12:01:28;;;;;;;44.25;22.00;;;;;;;;;;5033046;28;20191;-67
2021/11/16 12:03:55;;;;;;;44.90;21.15;;;;;;;;;;5033538;28;20055;-67
2021/11/16 12:06:21;;;;;;;46.67;21.33;;;;;;;;;;5032689;28;20544;-67
2021/11/16 12:08:48;;;;;;;43.95;22.02;;;;;;;;;;5032731;28;20033;-67
2021/11/16 12:11:14;;;;;;;42.50;21.90;;;;;;;;;;5061803;22;20132;-68
2021/11/16 12:13:40;;;;;;;46.10;23.10;;;;;;;;;;5049576;28;20040;-66
2021/11/16 12:16:09;;;;;;;46.85;22.77;;;;;;;;;;5052600;28;20021;-69
2021/11/16 12:18:41;;;;;;;43.92;22.42;;;;;;;;;;5051309;28;20059;-68
2021/11/16 12:21:45;;;;;;;42.42;20.48;;;;;;;;;;5052519;28;20017;-67
2021/11/16 12:24:13;;;;;;;45.97;23.02;;;;;;;;;;5029953;28;20040;-67
2021/11/16 12:26:54;;;;;;;39.80;20.98;;;;;;;;;;5013366;28;20500;-68
2021/11/16 12:29:26;;;;;;;44.85;22.33;;;;;;;;;;5034067;28;20028;-67
2021/11/16 12:31:53;;;;;;;43.38;21.65;;;;;;;;;;5051809;28;20021;-69
2021/11/16 12:34:52;;;;;;;45.80;22.88;;;;;;;;;;5050923;28;20025;-69
2021/11/16 12:37:39;;;;;;;41.78;21.35;;;;;;;;;;5029232;28;20033;-68
2021/11/16 12:40:07;;;;;;;43.85;20.98;;;;;;;;;;5051775;28;20017;-69
2021/11/16 12:42:33;;;;;;;44.75;21.33;;;;;;;;;;5051391;28;20100;-69
2021/11/16 12:45:00;;;;;;;59.03;22.40;;;;;;;;;;5052259;28;20505;-67
2021/11/16 12:47:30;;;;;;;43.58;22.30;;;;;;;;;;5051803;28;20059;-69
2021/11/16 12:50:13;;;;;;;44.88;20.65;;;;;;;;;;5050481;28;20464;-69
2021/11/16 12:52:47;;;;;;;42.60;21.00;;;;;;;;;;5051054;28;20029;-68
2021/11/16 12:55:16;;;;;;;44.50;21.13;;;;;;;;;;5050423;28;20542;-69
2021/11/16 12:57:42;;;;;;;43.80;22.85;;;;;;;;;;5051030;28;20091;-69
2021/11/16 13:00:09;;;;;;;42.90;21.80;;;;;;;;;;5051319;28;20428;-68
2021/11/16 13:02:56;;;;;;;42.53;20.90;;;;;;;;;;5049871;28;20024;-69
2021/11/16 13:05:30;;;;;;;40.88;18.92;;;;;;;;;;5031863;28;20359;-68
2021/11/16 13:07:57;;;;;;;40.85;19.88;;;;;;;;;;5030434;28;20120;-69
2021/11/16 13:10:25;;;;;;;41.58;20.38;;;;;;;;;;5031185;28;20029;-67
2021/11/16 13:12:51;;;;;;;41.20;20.27;;;;;;;;;;5044731;28;20391;-69
2021/11/16 13:15:37;;;;;;;40.10;19.83;;;;;;;;;;5049945;28;20052;-69
2021/11/16 13:18:08;;;;;;;36.95;17.52;;;;;;;;;;5050087;28;20032;-68
2021/11/16 13:20:50;;;;;;;36.72;18.90;;;;;;;;;;5049873;28;20099;-68
2021/11/16 13:23:16;;;;;;;35.70;18.58;;;;;;;;;;5051563;28;20033;-66
2021/11/16 13:25:48;;;;;;;38.35;19.17;;;;;;;;;;5049536;28;20404;-68
2021/11/16 13:28:26;;;;;;;35.65;18.60;;;;;;;;;;4700122;28;10000037;-69
2021/11/16 13:30:52;;;;;;;;;;;;;;;;;;5047459;28;20055;-67
2021/11/16 13:33:37;;;;;;;38.95;18.85;;;;;;;;;;5047931;28;20307;-69
2021/11/16 13:36:06;;;;;;;39.30;21.00;;;;;;;;;;5046859;28;20036;-67
2021/11/16 13:38:51;;;;;;;44.10;20.55;;;;;;;;;;5047495;28;20028;-67
2021/11/16 13:41:36;;;;;;;38.75;18.48;;;;;;;;;;5046902;28;20036;-67
2021/11/16 13:44:10;;;;;;;34.50;18.50;;;;;;;;;;5048513;28;20028;-67
2021/11/16 13:46:36;;;;;;;37.05;18.65;;;;;;;;;;5047302;28;20039;-68
2021/11/16 13:49:02;;;;;;;34.83;17.85;;;;;;;;;;5048027;28;20033;-68
2021/11/16 13:51:28;;;;;;;38.83;18.13;;;;;;;;;;5047665;28;20020;-68
2021/11/16 13:54:00;;;;;;;40.17;19.13;;;;;;;;;;5048211;28;20028;-67
2021/11/16 13:56:27;;;;;;;36.08;18.20;;;;;;;;;;5047785;28;20438;-68
2021/11/16 13:58:53;;;;;;;42.08;19.02;;;;;;;;;;5047367;28;20025;-67
2021/11/16 14:01:29;;;;;;;35.25;17.48;;;;;;;;;;5047434;28;20505;-68
2021/11/16 14:04:08;;;;;;;38.22;19.52;;;;;;;;;;5047469;28;20079;-66
2021/11/16 14:06:35;;;;;;;39.40;18.48;;;;;;;;;;5047539;28;20148;-68
2021/11/16 14:09:11;;;;;;;36.83;18.27;;;;;;;;;;5047168;28;20043;-68
2021/11/16 14:11:58;;;;;;;32.75;18.60;;;;;;;;;;5046914;28;20433;-68
2021/11/16 14:14:25;;;;;;;36.13;18.65;;;;;;;;;;5045955;28;20497;-67
2021/11/16 14:16:52;;;;;;;32.67;17.80;;;;;;;;;;5045585;28;20027;-69
2021/11/16 14:19:18;;;;;;;34.63;16.20;;;;;;;;;;5047220;28;20021;-68
2021/11/16 14:21:45;;;;;;;37.60;16.95;;;;;;;;;;5046780;28;20045;-67
2021/11/16 14:24:12;;;;;;;34.55;18.33;;;;;;;;;;5051035;28;20075;-69
2021/11/16 14:26:39;;;;;;;35.20;18.25;;;;;;;;;;5051019;28;20108;-68
2021/11/16 14:29:06;;;;;;;35.30;18.25;;;;;;;;;;5054655;28;20165;-71
2021/11/16 14:31:33;;;;;;;36.05;18.13;;;;;;;;;;5054304;28;20028;-70
2021/11/16 14:34:05;;;;;;;32.93;16.47;;;;;;;;;;5054471;28;20426;-68
2021/11/16 14:36:35;;;;;;;31.65;16.30;;;;;;;;;;5052986;28;20052;-65
2021/11/16 14:39:11;;;;;;;36.08;16.17;;;;;;;;;;4809295;28;10000843;-68
2021/11/16 14:41:41;;;;;;;36.42;17.83;;;;;;;;;;5030997;28;20248;-68
2021/11/16 14:44:09;;;;;;;34.03;17.83;;;;;;;;;;5032053;28;20028;-68